Time;durP1;ratioP1;P1;durP2;ratioP2;P2;SDS_P1;SDS_P2;PMS_P1;PMS_P2;Temp;Humidity;BMP_temperature;BMP_pressure;BME280_temperature;BME280_humidity;BME280_pressure;Samples;Min_cycle;Max_cycle;Signal;HPM_P1;HPM_P2
2022/08/23 00:02:23;;;;;;;10.73;3.75;;;;;;;14.93;73.16;97222.50;5045961;28;20558;-62
2022/08/23 00:04:51;;;;;;;6.72;3.70;;;;;;;15.10;72.46;97228.66;5044240;28;20102;-58
2022/08/23 00:07:37;;;;;;;6.47;4.43;;;;;;;15.19;72.19;97227.75;5044945;28;20116;-57
2022/08/23 00:10:07;;;;;;;7.13;3.40;;;;;;;15.32;71.36;97222.72;5046408;28;20033;-59
2022/08/23 00:12:34;;;;;;;6.57;3.40;;;;;;;15.32;71.34;97223.56;5045588;28;20400;-59
2022/08/23 00:15:00;;;;;;;7.95;3.72;;;;;;;15.14;72.04;97216.88;5050211;28;20054;-58
2022/08/23 00:17:27;;;;;;;6.75;3.72;;;;;;;15.20;71.78;97214.94;5059301;28;20519;-59
2022/08/23 00:20:06;;;;;;;5.65;3.42;;;;;;;15.18;71.84;97215.22;5045458;28;20072;-58
2022/08/23 00:22:33;;;;;;;5.75;3.63;;;;;;;15.19;71.53;97210.59;5048756;28;20223;-58
2022/08/23 00:25:00;;;;;;;7.70;3.40;;;;;;;15.19;71.59;97216.03;5045817;28;20512;-58
2022/08/23 00:27:27;;;;;;;8.45;3.22;;;;;;;15.29;71.17;97209.69;5045327;28;20041;-58
2022/08/23 00:29:56;;;;;;;9.07;3.95;;;;;;;15.29;71.23;97209.69;5055121;28;20091;-59
2022/08/23 00:32:34;;;;;;;6.50;3.38;;;;;;;15.20;71.59;97214.94;5044766;28;20251;-59
2022/08/23 00:35:04;;;;;;;6.93;3.83;;;;;;;14.65;74.15;97213.13;5045959;28;20118;-58
2022/08/23 00:37:31;;;;;;;6.05;3.80;;;;;;;14.34;75.56;97205.94;5061190;28;20037;-59
2022/08/23 00:39:59;;;;;;;6.53;4.10;;;;;;;14.12;76.31;97207.16;5045458;28;20051;-59
2022/08/23 00:48:29;;;;;;;7.03;3.70;;;;;;;14.21;75.78;97199.22;5024042;28;20499;-57
2022/08/23 00:51:07;;;;;;;7.82;3.65;;;;;;;14.23;75.19;97198.94;5047939;28;20127;-59
2022/08/23 00:53:40;;;;;;;5.88;3.45;;;;;;;14.38;74.09;97190.66;5051629;28;20459;-59
2022/08/23 00:56:11;;;;;;;4.97;2.92;;;;;;;14.64;72.75;97193.25;5047780;28;20380;-58
2022/08/23 00:58:38;;;;;;;5.90;3.45;;;;;;;14.81;71.68;97198.34;5055412;28;20099;-58
2022/08/23 01:01:06;;;;;;;5.43;3.05;;;;;;;14.92;71.27;97201.78;5046175;28;20574;-58
2022/08/23 01:03:36;;;;;;;5.82;2.97;;;;;;;15.01;70.55;97198.47;5064995;28;20435;-58
2022/08/23 01:06:14;;;;;;;5.93;3.33;;;;;;;15.03;70.35;97196.25;5047362;28;20041;-59
2022/08/23 01:08:46;;;;;;;5.55;3.15;;;;;;;14.97;70.73;97200.97;5054772;28;20040;-58
2022/08/23 01:11:23;;;;;;;4.60;3.10;;;;;;;14.93;70.64;97208.88;5044308;28;20107;-57
2022/08/23 01:13:55;;;;;;;7.88;3.30;;;;;;;14.88;70.87;97208.91;5045564;28;20045;-58
2022/08/23 01:16:32;;;;;;;4.85;3.00;;;;;;;14.96;70.42;97210.22;5042976;28;20502;-58
2022/08/23 01:19:02;;;;;;;5.55;2.90;;;;;;;14.94;70.28;97212.41;5044079;28;20393;-58
2022/08/23 01:21:56;;;;;;;4.72;2.78;;;;;;;14.89;70.75;97209.75;5060850;28;20048;-59
2022/08/23 01:24:23;;;;;;;5.78;3.10;;;;;;;14.94;70.26;97212.41;5056513;28;20099;-58
2022/08/23 01:27:11;;;;;;;7.38;3.08;;;;;;;15.01;70.29;97214.81;5047453;28;20404;-59
2022/08/23 01:29:40;;;;;;;5.82;3.00;;;;;;;15.10;69.39;97212.31;5040195;28;20041;-59
2022/08/23 01:32:08;;;;;;;5.55;3.42;;;;;;;15.10;69.84;97218.56;5043786;28;20097;-59
2022/08/23 01:34:35;;;;;;;5.85;3.35;;;;;;;15.12;69.96;97213.66;5046475;28;20052;-58
2022/08/23 01:37:10;;;;;;;4.53;2.88;;;;;;;14.98;70.87;97216.22;5045820;28;20141;-58
2022/08/23 01:39:37;;;;;;;4.63;2.63;;;;;;;14.93;71.20;97219.78;5047291;28;20036;-59
2022/08/23 01:42:06;;;;;;;4.80;3.10;;;;;;;14.77;71.65;97220.97;5047022;28;20246;-58
2022/08/23 01:44:34;;;;;;;6.40;2.95;;;;;;;14.43;72.62;97223.34;5046924;28;20373;-59
2022/08/23 01:47:01;;;;;;;6.05;2.97;;;;;;;14.08;74.63;97219.69;5078117;28;20048;-58
2022/08/23 01:49:28;;;;;;;6.35;3.05;;;;;;;13.88;74.73;97223.31;5047015;28;20519;-58
2022/08/23 01:51:54;;;;;;;4.78;3.10;;;;;;;13.81;75.47;97223.59;5066161;28;20097;-58
2022/08/23 01:54:21;;;;;;;6.00;4.03;;;;;;;13.81;75.48;97225.53;5030527;28;20041;-59
2022/08/23 01:56:48;;;;;;;5.78;3.50;;;;;;;13.79;75.21;97212.19;5050027;28;20047;-58
2022/08/23 01:59:14;;;;;;;6.32;3.58;;;;;;;13.70;76.13;97216.53;5081626;28;20551;-58
2022/08/23 02:01:46;;;;;;;5.45;3.50;;;;;;;13.66;76.53;97221.72;5045940;28;20052;-58
2022/08/23 02:04:13;;;;;;;6.10;3.55;;;;;;;13.61;76.56;97217.13;5058831;28;20043;-58
2022/08/23 02:06:40;;;;;;;5.93;3.40;;;;;;;13.71;76.23;97215.47;5046439;28;20051;-58
2022/08/23 02:09:08;;;;;;;6.30;3.40;;;;;;;13.86;75.12;97211.91;5056511;28;20462;-58
2022/08/23 02:11:44;;;;;;;5.93;4.07;;;;;;;13.98;74.65;97209.69;5046149;28;20448;-59
2022/08/23 02:14:15;;;;;;;6.20;3.78;;;;;;;14.03;74.54;97206.94;5045960;28;20148;-58
2022/08/23 02:16:50;;;;;;;4.25;3.08;;;;;;;14.05;74.18;97207.44;5051241;28;20045;-57
2022/08/23 02:19:29;;;;;;;5.28;2.95;;;;;;;14.19;73.73;97204.13;5046892;28;20492;-59
2022/08/23 02:21:56;;;;;;;5.20;2.80;;;;;;;14.31;72.96;97204.59;5045998;28;20508;-58
2022/08/23 02:24:23;;;;;;;6.57;3.58;;;;;;;14.35;72.82;97210.31;5051666;28;20045;-59
2022/08/23 02:26:55;;;;;;;4.60;2.78;;;;;;;14.36;72.79;97205.66;5045284;28;20055;-59
2022/08/23 02:29:28;;;;;;;6.82;2.92;;;;;;;14.41;72.50;97222.00;5045589;28;20048;-59
2022/08/23 02:31:56;;;;;;;6.15;3.38;;;;;;;14.44;72.18;97221.44;5044877;28;20048;-59
2022/08/23 02:34:24;;;;;;;5.53;2.78;;;;;;;14.49;71.89;97223.31;5059535;28;20064;-58
2022/08/23 02:36:53;;;;;;;5.28;2.63;;;;;;;14.61;71.33;97222.97;5047630;28;20083;-58
2022/08/23 02:39:21;;;;;;;5.03;3.20;;;;;;;14.68;71.18;97218.03;5046534;28;20041;-58
2022/08/23 02:41:48;;;;;;;4.30;2.70;;;;;;;14.77;70.34;97223.69;5046203;28;20049;-58
2022/08/23 02:44:15;;;;;;;5.80;3.00;;;;;;;14.78;70.25;97228.09;5045317;28;20044;-59
2022/08/23 02:46:42;;;;;;;5.75;3.00;;;;;;;14.77;70.15;97224.53;5064729;28;20044;-59
2022/08/23 02:49:09;;;;;;;4.45;3.03;;;;;;;14.75;70.27;97234.06;5081349;28;20047;-58
2022/08/23 02:51:37;;;;;;;8.55;3.30;;;;;;;14.75;70.23;97229.44;5050328;28;20471;-58
2022/08/23 02:54:04;;;;;;;5.32;3.03;;;;;;;14.89;69.67;97231.56;5027838;28;20527;-58
2022/08/23 02:56:32;;;;;;;6.93;2.90;;;;;;;14.88;69.64;97228.00;5026496;28;20045;-59
2022/08/23 02:58:59;;;;;;;7.70;3.08;;;;;;;14.94;69.23;97226.06;5047946;28;20401;-59
2022/08/23 03:01:28;;;;;;;5.13;2.95;;;;;;;14.93;69.46;97221.69;5045885;28;20644;-58
2022/08/23 03:04:01;;;;;;;5.90;3.00;;;;;;;14.95;69.46;97230.41;5056266;28;20535;-58
2022/08/23 03:06:28;;;;;;;6.25;2.78;;;;;;;14.91;69.50;97230.16;5067157;28;20041;-58
2022/08/23 03:08:56;;;;;;;7.65;3.47;;;;;;;14.94;69.52;97235.06;5047562;28;20051;-58
2022/08/23 03:11:23;;;;;;;6.97;3.70;;;;;;;14.94;69.53;97235.06;5060320;28;20044;-57
2022/08/23 03:13:53;;;;;;;5.00;3.10;;;;;;;14.92;69.71;97239.97;5061601;28;20448;-59
2022/08/23 03:16:21;;;;;;;5.05;3.10;;;;;;;14.85;70.02;97244.13;5061030;28;20083;-58
2022/08/23 03:18:48;;;;;;;5.13;3.10;;;;;;;14.81;70.12;97239.22;5082195;28;20040;-60
2022/08/23 03:21:16;;;;;;;6.32;3.13;;;;;;;14.75;70.44;97243.06;5064018;28;20041;-59
2022/08/23 03:23:42;;;;;;;5.78;3.00;;;;;;;14.66;70.80;97242.00;5076269;28;20037;-58
2022/08/23 03:26:11;;;;;;;4.40;2.90;;;;;;;14.69;70.53;97239.53;5049090;28;20088;-59
2022/08/23 03:28:40;;;;;;;5.20;2.90;;;;;;;14.75;70.27;97236.78;5053701;28;20048;-57
2022/08/23 03:31:09;;;;;;;6.45;3.28;;;;;;;14.57;71.15;97239.06;5048865;28;20064;-58
2022/08/23 03:33:45;;;;;;;5.22;2.90;;;;;;;14.49;71.63;97239.66;5054436;28;20055;-57
2022/08/23 03:36:12;;;;;;;5.05;3.40;;;;;;;14.60;71.26;97238.53;5064586;28;20052;-59
2022/08/23 03:38:40;;;;;;;5.05;3.03;;;;;;;14.81;70.38;97239.22;5047744;28;20059;-59
2022/08/23 03:41:08;;;;;;;6.25;3.40;;;;;;;14.93;69.76;97233.41;5065395;28;20123;-59
2022/08/23 03:43:36;;;;;;;6.43;3.20;;;;;;;15.08;68.82;97229.75;5044168;28;20045;-58
2022/08/23 03:46:05;;;;;;;7.07;3.97;;;;;;;15.17;68.78;97232.69;5056719;28;20131;-58
2022/08/23 03:48:36;;;;;;;6.03;3.35;;;;;;;15.08;69.32;97239.84;5064244;28;20068;-59
2022/08/23 03:51:03;;;;;;;7.45;3.55;;;;;;;15.05;69.27;97235.78;5049451;28;20080;-59
2022/08/23 03:53:30;;;;;;;4.30;2.90;;;;;;;15.19;68.46;97240.59;5048413;28;20413;-58
2022/08/23 03:55:56;;;;;;;6.28;3.65;;;;;;;15.34;67.72;97247.81;5043912;28;20045;-58
2022/08/23 03:58:24;;;;;;;5.32;2.83;;;;;;;15.38;67.57;97242.59;5059117;28;20543;-58
2022/08/23 04:00:51;;;;;;;7.43;3.55;;;;;;;15.42;67.20;97247.22;5067376;28;20041;-57
2022/08/23 04:03:18;;;;;;;5.53;3.63;;;;;;;15.44;67.15;97252.38;5055028;28;20045;-57
2022/08/23 04:06:01;;;;;;;5.65;3.10;;;;;;;15.35;67.31;97252.19;5049902;28;20532;-58
2022/08/23 04:08:29;;;;;;;8.32;3.03;;;;;;;15.36;67.36;97248.34;5044245;28;20041;-58
2022/08/23 04:11:01;;;;;;;8.55;3.22;;;;;;;15.36;67.52;97255.72;5045785;28;20043;-59
2022/08/23 04:13:28;;;;;;;6.55;3.17;;;;;;;15.30;67.72;97252.22;5044635;28;20564;-58
2022/08/23 04:15:55;;;;;;;5.07;3.10;;;;;;;15.21;68.08;97260.19;5054658;28;20071;-58
2022/08/23 04:18:22;;;;;;;5.88;3.20;;;;;;;15.18;68.33;97256.13;5081235;28;20055;-59
2022/08/23 04:20:50;;;;;;;7.20;2.95;;;;;;;15.23;68.06;97257.19;5055579;28;20124;-59
2022/08/23 04:23:19;;;;;;;6.15;3.63;;;;;;;15.17;68.43;97259.13;5041234;28;20512;-59
2022/08/23 04:25:52;;;;;;;5.10;3.38;;;;;;;15.08;68.87;97267.91;5042053;28;20052;-58
2022/08/23 04:28:20;;;;;;;6.25;4.07;;;;;;;14.99;69.12;97268.81;5049282;28;20083;-57
2022/08/23 04:30:48;;;;;;;7.78;3.67;;;;;;;14.92;69.56;97275.41;5042043;28;20741;-58
2022/08/23 04:33:16;;;;;;;6.00;3.65;;;;;;;14.85;69.77;97280.34;5042902;28;20045;-58
2022/08/23 04:35:45;;;;;;;5.60;3.38;;;;;;;14.79;70.29;97274.13;5041326;28;20131;-57
2022/08/23 04:38:11;;;;;;;7.05;3.45;;;;;;;14.83;70.20;97277.09;5043366;28;20037;-58
2022/08/23 04:43:38;;;;;;;5.53;3.60;;;;;;;14.84;70.04;97284.19;5044326;28;20053;-58
2022/08/23 04:46:05;;;;;;;5.20;3.33;;;;;;;14.86;69.76;97295.63;5040978;28;20052;-59
2022/08/23 04:48:34;;;;;;;5.45;3.55;;;;;;;14.86;70.04;97292.91;5042083;28;20239;-59
2022/08/23 04:51:01;;;;;;;6.35;3.63;;;;;;;14.85;70.21;97291.25;5033158;28;20065;-58
2022/08/23 04:53:34;;;;;;;7.43;3.88;;;;;;;14.86;70.17;97292.91;5071294;28;20052;-57
2022/08/23 04:56:23;;;;;;;6.18;3.97;;;;;;;14.80;70.17;97302.19;5043607;28;20068;-57
2022/08/23 04:58:51;;;;;;;5.05;3.38;;;;;;;14.51;71.11;97300.13;5053166;28;20234;-58
2022/08/23 05:01:18;;;;;;;6.40;3.63;;;;;;;14.28;72.59;97310.56;5046911;28;20420;-59
2022/08/23 05:03:46;;;;;;;6.40;3.70;;;;;;;14.14;73.72;97313.88;5045349;28;20045;-57
2022/08/23 05:06:13;;;;;;;7.47;3.50;;;;;;;14.07;73.71;97318.00;5062978;28;20051;-58
2022/08/23 05:08:39;;;;;;;7.40;3.60;;;;;;;14.22;73.41;97317.13;5046257;28;20055;-58
2022/08/23 05:11:10;;;;;;;6.78;4.20;;;;;;;14.22;73.21;97319.84;5046558;28;20045;-59
2022/08/23 05:13:40;;;;;;;8.60;3.80;;;;;;;14.32;72.76;97319.81;5044755;28;20076;-58
2022/08/23 05:16:09;;;;;;;6.10;4.03;;;;;;;14.30;73.34;97322.00;5055749;28;20327;-57
2022/08/23 05:18:41;;;;;;;7.70;3.90;;;;;;;14.32;73.26;97319.81;5052056;28;20049;-58
2022/08/23 05:21:16;;;;;;;6.13;3.58;;;;;;;14.29;73.78;97326.63;5044837;28;20128;-58
2022/08/23 05:23:44;;;;;;;6.95;4.13;;;;;;;14.26;73.84;97327.19;5052787;28;20466;-59
2022/08/23 05:26:20;;;;;;;5.65;3.97;;;;;;;14.39;73.13;97328.50;5045320;28;20061;-59
2022/08/23 05:28:49;;;;;;;5.60;3.85;;;;;;;14.50;73.10;97339.34;5045458;28;20053;-59
2022/08/23 05:31:24;;;;;;;6.28;3.47;;;;;;;14.63;72.27;97325.13;5044834;28;20061;-58
2022/08/23 05:33:53;;;;;;;7.05;4.35;;;;;;;14.71;72.18;97334.66;5045990;28;20480;-58
2022/08/23 05:36:29;;;;;;;6.07;3.78;;;;;;;14.73;72.61;97331.63;5044815;28;20490;-59
2022/08/23 05:38:56;;;;;;;6.32;3.53;;;;;;;14.84;72.22;97325.06;5047801;28;20041;-59
2022/08/23 05:41:23;;;;;;;5.80;3.75;;;;;;;14.96;72.02;97330.16;5066001;28;20376;-59
2022/08/23 05:44:03;;;;;;;6.72;4.15;;;;;;;15.04;71.55;97334.22;5045249;28;20423;-61
2022/08/23 05:46:30;;;;;;;5.47;3.88;;;;;;;15.21;70.83;97337.38;5048773;28;20037;-55
2022/08/23 05:49:14;;;;;;;5.90;3.80;;;;;;;15.41;70.13;97341.03;5044680;28;20055;-51
2022/08/23 05:51:47;;;;;;;7.15;3.83;;;;;;;15.56;69.53;97337.38;5041321;28;20048;-55
2022/08/23 05:54:17;;;;;;;7.85;4.22;;;;;;;15.70;69.29;97334.81;5044541;28;20051;-56
2022/08/23 05:56:50;;;;;;;5.53;3.47;;;;;;;15.86;68.56;97342.88;5047843;28;20040;-52
2022/08/23 05:59:19;;;;;;;5.25;3.47;;;;;;;15.95;68.62;97340.34;5073155;28;20494;-53
2022/08/23 06:01:45;;;;;;;8.02;3.80;;;;;;;16.14;67.91;97345.91;5048209;28;20559;-54
2022/08/23 06:04:17;;;;;;;8.93;4.00;;;;;;;16.33;66.88;97343.22;5079141;28;20045;-55
2022/08/23 06:06:44;;;;;;;4.97;3.55;;;;;;;16.54;66.44;97343.00;5043261;28;20056;-54
2022/08/23 06:09:14;;;;;;;5.45;3.08;;;;;;;16.85;65.44;97350.00;5049501;28;20049;-52
2022/08/23 06:11:46;;;;;;;5.57;3.47;;;;;;;17.14;63.64;97349.91;5045607;28;20053;-53
2022/08/23 06:14:13;;;;;;;;;;;;;;;17.41;62.47;97344.88;5069590;28;20056;-51
2022/08/23 06:16:45;;;;;;;6.55;3.65;;;;;;;17.73;61.28;97351.47;5044698;28;19932;-52
2022/08/23 06:19:15;;;;;;;6.10;3.45;;;;;;;17.87;60.54;97351.50;5046686;28;20041;-51
2022/08/23 06:21:50;;;;;;;5.00;3.22;;;;;;;18.06;59.88;97348.72;5046067;28;20052;-52
2022/08/23 06:24:23;;;;;;;5.63;3.25;;;;;;;18.28;59.40;97355.47;5043372;28;20721;-52
2022/08/23 06:27:08;;;;;;;5.25;3.40;;;;;;;18.46;58.78;97358.41;5044161;28;20044;-53
2022/08/23 06:29:37;;;;;;;5.80;3.10;;;;;;;18.64;57.97;97358.63;5043656;28;20315;-52
2022/08/23 06:32:22;;;;;;;7.88;3.60;;;;;;;18.82;56.86;97357.69;5048372;28;20408;-55
2022/08/23 06:35:08;;;;;;;6.15;3.20;;;;;;;18.95;56.34;97352.50;5046138;28;20060;-55
2022/08/23 06:38:02;;;;;;;5.90;3.00;;;;;;;19.02;56.33;97350.13;5070865;28;20053;-54
2022/08/23 06:40:51;;;;;;;5.03;2.70;;;;;;;19.23;55.61;97349.69;5046600;28;20041;-52
2022/08/23 06:43:28;;;;;;;5.13;2.65;;;;;;;19.37;55.39;97352.41;5045079;28;20047;-54
2022/08/23 06:46:27;;;;;;;4.40;2.42;;;;;;;19.64;54.57;97350.66;5051404;28;20060;-47
2022/08/23 06:48:56;;;;;;;5.90;2.65;;;;;;;19.78;53.96;97356.09;5043392;28;20045;-56
2022/08/23 06:51:26;;;;;;;5.10;2.83;;;;;;;19.90;53.26;97350.03;5041378;28;20065;-56
2022/08/23 06:53:57;;;;;;;4.43;2.67;;;;;;;20.06;53.02;97363.41;5043629;28;20076;-52
2022/08/23 06:56:48;;;;;;;4.95;2.45;;;;;;;20.20;51.79;97352.31;5048673;28;20052;-57
2022/08/23 06:59:19;;;;;;;4.35;2.60;;;;;;;20.25;52.04;97355.75;5045858;28;20041;-54
2022/08/23 07:02:08;;;;;;;4.78;2.47;;;;;;;20.31;51.09;97359.16;5051450;28;20041;-51
2022/08/23 07:05:04;;;;;;;5.05;2.88;;;;;;;20.46;50.80;97351.63;5055652;28;20064;-63
2022/08/23 07:07:53;;;;;;;4.75;2.40;;;;;;;20.45;50.83;97356.31;5035742;28;20089;-60
2022/08/23 07:10:20;;;;;;;5.05;2.35;;;;;;;20.50;50.78;97352.63;5041654;28;20099;-61
2022/08/23 07:12:48;;;;;;;7.35;2.70;;;;;;;20.74;48.14;97362.38;5041651;28;20560;-61
2022/08/23 07:15:18;;;;;;;6.78;2.28;;;;;;;20.94;48.26;97366.53;5050333;28;20134;-58
2022/08/23 07:17:44;;;;;;;6.10;2.15;;;;;;;21.08;47.60;97365.56;5051208;28;20068;-58
2022/08/23 07:20:12;;;;;;;4.00;1.90;;;;;;;21.23;46.84;97367.84;5042180;28;20053;-59
2022/08/23 07:22:41;;;;;;;7.88;1.88;;;;;;;21.39;45.30;97370.97;5054962;28;20036;-60
2022/08/23 07:25:08;;;;;;;5.85;1.92;;;;;;;21.47;44.50;97377.59;5082211;28;20070;-59
2022/08/23 07:27:36;;;;;;;4.93;1.90;;;;;;;21.53;44.96;97372.72;5074620;28;20439;-58
2022/08/23 07:30:06;;;;;;;3.60;1.90;;;;;;;21.55;44.03;97375.97;5045091;28;20037;-60
2022/08/23 07:32:35;;;;;;;4.30;2.15;;;;;;;21.67;43.75;97376.13;5027874;28;20714;-60
2022/08/23 07:35:12;;;;;;;4.80;1.80;;;;;;;21.74;43.18;97374.88;5045241;28;20055;-61
2022/08/23 07:37:41;;;;;;;4.32;2.10;;;;;;;21.90;43.12;97381.50;5041831;28;20049;-61
2022/08/23 07:40:10;;;;;;;3.20;1.83;;;;;;;21.91;42.52;97385.84;5040315;28;20076;-62
2022/08/23 07:42:46;;;;;;;5.97;2.00;;;;;;;;;;5041745;28;20460;-61
2022/08/23 07:45:13;;;;;;;4.05;2.00;;;;;;;22.12;41.90;97385.16;5040965;28;20154;-61
2022/08/23 07:47:43;;;;;;;3.92;2.10;;;;;;;22.22;41.41;97390.31;5041220;28;20156;-61
2022/08/23 07:50:16;;;;;;;5.93;1.90;;;;;;;22.26;41.63;97387.72;5042051;28;20136;-63
2022/08/23 07:52:44;;;;;;;6.72;2.00;;;;;;;22.34;41.59;97395.16;5032563;28;20037;-60
2022/08/23 07:55:11;;;;;;;3.05;1.98;;;;;;;22.39;41.26;97396.94;5042050;28;20094;-61
2022/08/23 07:57:56;;;;;;;5.60;1.95;;;;;;;22.51;41.05;97399.00;5043425;28;20060;-62
2022/08/23 08:00:26;;;;;;;5.75;1.90;;;;;;;22.51;40.68;97403.72;5043530;28;20567;-61
2022/08/23 08:03:03;;;;;;;6.43;2.15;;;;;;;22.55;40.87;97401.94;5039671;28;20424;-61
2022/08/23 08:05:44;;;;;;;7.90;2.20;;;;;;;22.62;40.78;97402.22;5036244;28;20135;-60
2022/08/23 08:08:11;;;;;;;3.47;1.90;;;;;;;22.67;40.73;97395.72;5041018;28;20053;-61
2022/08/23 08:10:40;;;;;;;3.80;1.65;;;;;;;22.73;40.96;97397.13;5040200;28;20064;-62
2022/08/23 08:13:07;;;;;;;5.22;1.98;;;;;;;22.84;40.74;97397.56;5043505;28;20045;-62
2022/08/23 08:15:34;;;;;;;5.72;1.80;;;;;;;22.90;41.01;97396.25;5041662;28;20052;-63
2022/08/23 08:18:06;;;;;;;4.20;1.73;;;;;;;23.04;40.78;97404.31;5037901;28;20041;-59
2022/08/23 08:20:52;;;;;;;5.55;2.47;;;;;;;23.22;39.59;97404.97;5040881;28;20522;-61
2022/08/23 08:23:57;;;;;;;4.53;2.05;;;;;;;23.30;39.97;97413.56;5038078;28;20060;-61
2022/08/23 08:26:34;;;;;;;3.90;1.92;;;;;;;23.39;38.68;97411.56;5040572;28;20053;-62
2022/08/23 08:29:01;;;;;;;4.68;1.98;;;;;;;23.42;38.78;97408.13;5037876;28;20051;-61
2022/08/23 08:31:28;;;;;;;5.20;1.88;;;;;;;23.43;38.57;97411.72;5043747;28;20033;-62
2022/08/23 08:33:55;;;;;;;6.30;1.73;;;;;;;23.43;38.32;97415.28;5031334;28;20045;-60
2022/08/23 08:36:38;;;;;;;4.88;1.90;;;;;;;23.49;38.17;97424.19;5042467;28;20045;-59
2022/08/23 08:39:22;;;;;;;3.58;1.67;;;;;;;23.44;38.46;97411.34;5038103;28;20511;-60
2022/08/23 08:42:10;;;;;;;3.08;1.52;;;;;;;23.46;38.47;97417.38;5043432;28;20083;-59
2022/08/23 08:44:57;;;;;;;4.72;1.80;;;;;;;23.56;38.90;97415.34;5045637;28;20516;-61
2022/08/23 08:47:42;;;;;;;4.38;1.77;;;;;;;23.72;38.44;97416.34;5038193;28;20068;-59
2022/08/23 08:50:27;;;;;;;4.45;1.77;;;;;;;23.75;37.58;97418.44;5041065;28;20057;-60
2022/08/23 08:53:05;;;;;;;7.93;2.13;;;;;;;23.84;37.70;97420.34;5040462;28;20274;-61
2022/08/23 08:55:58;;;;;;;3.75;1.70;;;;;;;23.96;37.15;97428.69;5043386;28;20080;-60
2022/08/23 08:58:47;;;;;;;2.95;1.65;;;;;;;24.10;37.20;97422.88;5042219;28;20481;-63
2022/08/23 09:01:16;;;;;;;4.43;2.25;;;;;;;24.19;36.61;97420.03;5048621;28;20102;-62
2022/08/23 09:03:43;;;;;;;3.97;1.70;;;;;;;24.25;36.29;97417.84;5042772;28;20053;-61
2022/08/23 09:06:33;;;;;;;4.25;1.50;;;;;;;24.27;36.27;97412.78;5059190;28;20052;-61
2022/08/23 09:09:29;;;;;;;2.63;1.60;;;;;;;24.31;36.21;97422.00;5054981;28;20382;-61
2022/08/23 09:12:17;;;;;;;5.85;1.77;;;;;;;24.42;36.06;97420.44;5041359;28;20052;-61
2022/08/23 09:15:18;;;;;;;4.53;1.70;;;;;;;24.49;35.91;97421.81;5042124;28;20659;-61
2022/08/23 09:17:56;;;;;;;3.70;1.70;;;;;;;24.54;35.80;97421.56;5033955;28;20049;-60
2022/08/23 09:20:27;;;;;;;4.43;1.83;;;;;;;24.49;34.76;97422.63;5037660;28;20036;-61
2022/08/23 09:23:07;;;;;;;5.28;1.77;;;;;;;24.54;34.98;97419.63;5042215;28;20040;-61
2022/08/23 09:25:36;;;;;;;4.10;1.75;;;;;;;24.72;34.39;97424.94;5041427;28;20033;-60
2022/08/23 09:28:11;;;;;;;5.32;1.90;;;;;;;24.73;34.90;97421.03;5040995;28;20423;-58
2022/08/23 09:30:52;;;;;;;4.70;1.73;;;;;;;24.87;34.76;97426.25;5041000;28;20037;-58
2022/08/23 09:33:24;;;;;;;5.35;1.70;;;;;;;24.89;34.93;97412.06;5040059;28;20050;-59
2022/08/23 09:36:05;;;;;;;3.88;1.58;;;;;;;25.00;34.20;97423.50;5043725;28;20571;-58
2022/08/23 09:38:34;;;;;;;6.93;1.77;;;;;;;25.07;33.78;97412.66;5042651;28;20068;-58
2022/08/23 09:41:18;;;;;;;4.47;1.67;;;;;;;25.02;34.14;97415.66;5044246;28;20098;-57
2022/08/23 09:43:48;;;;;;;7.88;2.00;;;;;;;25.00;33.80;97407.69;5046593;28;20041;-57
2022/08/23 09:46:29;;;;;;;2.78;1.75;;;;;;;25.11;34.16;97416.34;5050728;28;20131;-59
2022/08/23 09:49:00;;;;;;;6.35;1.77;;;;;;;25.27;33.51;97410.06;5046716;28;20037;-58
2022/08/23 09:51:34;;;;;;;3.42;1.60;;;;;;;25.28;33.15;97414.47;5047025;28;20663;-57
2022/08/23 09:54:11;;;;;;;4.60;1.73;;;;;;;25.19;33.82;97409.88;5043729;28;20543;-56
2022/08/23 09:56:41;;;;;;;4.80;1.80;;;;;;;25.25;33.47;97415.16;5044742;28;20072;-56
2022/08/23 09:59:24;;;;;;;3.25;1.23;;;;;;;25.20;33.46;97416.19;5044639;28;20041;-58
2022/08/23 10:01:58;;;;;;;4.05;1.77;;;;;;;25.27;33.86;97416.44;5040702;28;20088;-60
2022/08/23 10:04:46;;;;;;;4.97;1.70;;;;;;;25.41;33.22;97416.06;5058987;28;20182;-59
2022/08/23 10:07:25;;;;;;;3.22;1.63;;;;;;;25.38;33.44;97415.94;5038065;28;20566;-59
2022/08/23 10:10:11;;;;;;;4.43;1.90;;;;;;;25.40;33.05;97405.31;5044207;28;20052;-60
2022/08/23 10:12:38;;;;;;;7.32;1.92;;;;;;;25.50;33.52;97410.38;5042296;28;20045;-60
2022/08/23 10:15:08;;;;;;;7.28;1.60;;;;;;;25.60;33.05;97411.88;5043840;28;20592;-60
2022/08/23 10:18:03;;;;;;;3.88;1.90;;;;;;;25.55;33.40;97412.91;5042371;28;20516;-60
2022/08/23 10:20:44;;;;;;;5.50;1.70;;;;;;;25.62;33.07;97408.75;5044018;28;20079;-59
2022/08/23 10:23:29;;;;;;;2.58;1.45;;;;;;;25.75;32.88;97407.56;5045392;28;20041;-60
2022/08/23 10:25:59;;;;;;;4.30;1.80;;;;;;;25.73;32.71;97398.78;5051907;28;20045;-59
2022/08/23 10:31:53;;;;;;;3.97;1.67;;;;;;;25.88;31.43;97408.31;5039316;28;20068;-59
2022/08/23 10:34:54;;;;;;;4.40;1.65;;;;;;;25.90;31.51;97402.44;5058401;28;20049;-59
2022/08/23 10:37:54;;;;;;;3.45;1.67;;;;;;;25.92;31.41;97400.91;5043200;28;20048;-59
2022/08/23 10:40:31;;;;;;;2.63;1.60;;;;;;;25.84;32.05;97399.88;5039422;28;20519;-59
2022/08/23 10:43:13;;;;;;;3.85;1.50;;;;;;;25.88;31.85;97404.75;5045537;28;20044;-59
2022/08/23 10:45:45;;;;;;;3.58;1.83;;;;;;;26.03;30.48;97395.66;5045132;28;20444;-59
2022/08/23 10:48:53;;;;;;;5.05;1.70;;;;;;;26.10;31.06;97395.06;5037930;28;20048;-59
2022/08/23 10:51:28;;;;;;;8.82;2.00;;;;;;;26.17;31.20;97394.44;5036076;28;20067;-59
2022/08/23 10:54:06;;;;;;;6.60;1.98;;;;;;;26.27;30.72;97385.59;5038106;28;20471;-59
2022/08/23 10:56:34;;;;;;;4.32;1.70;;;;;;;26.39;29.93;97395.03;5043620;28;20048;-59
2022/08/23 10:59:09;;;;;;;4.55;1.70;;;;;;;26.33;30.61;97380.59;5042526;28;20045;-59
2022/08/23 11:01:49;;;;;;;3.97;1.90;;;;;;;26.32;30.32;97381.78;5045128;28;20040;-59
2022/08/23 11:04:20;;;;;;;5.50;1.58;;;;;;;26.33;30.06;97369.50;5044596;28;20684;-59
2022/08/23 11:07:26;;;;;;;3.67;1.73;;;;;;;26.27;30.26;97371.72;5042246;28;20084;-59
2022/08/23 11:10:07;;;;;;;4.47;1.52;;;;;;;26.41;29.74;97370.47;5042868;28;20048;-59
2022/08/23 11:12:57;;;;;;;6.68;2.13;;;;;;;26.53;30.04;97367.63;5040623;28;20102;-59
2022/08/23 11:15:42;;;;;;;5.20;1.67;;;;;;;26.49;30.09;97369.50;5044764;28;20045;-59
2022/08/23 11:18:33;;;;;;;4.95;2.05;;;;;;;26.57;30.33;97368.50;5057202;28;20057;-59
2022/08/23 11:21:05;;;;;;;3.67;1.70;;;;;;;26.84;30.14;97371.56;5043533;28;20045;-57
2022/08/23 11:23:57;;;;;;;4.25;1.58;;;;;;;26.74;30.22;97364.56;5042382;28;20045;-58
2022/08/23 11:26:25;;;;;;;5.95;1.70;;;;;;;26.66;29.88;97370.31;5036882;28;20045;-57
2022/08/23 11:29:21;;;;;;;6.05;1.90;;;;;;;26.65;30.21;97368.69;5041817;28;20115;-57
2022/08/23 11:32:03;;;;;;;3.42;1.63;;;;;;;26.73;29.59;97362.97;5049817;28;20069;-60
2022/08/23 11:34:57;;;;;;;2.80;1.50;;;;;;;26.82;29.60;97361.94;5039046;28;20045;-58
2022/08/23 11:37:46;;;;;;;3.83;1.88;;;;;;;26.65;29.78;97365.91;5031266;28;20065;-57
2022/08/23 11:40:12;;;;;;;4.50;1.77;;;;;;;26.52;30.11;97360.47;5034165;28;20741;-58
2022/08/23 11:42:48;;;;;;;4.80;1.80;;;;;;;26.53;30.44;97364.06;5038508;28;20050;-59
2022/08/23 11:45:43;;;;;;;5.05;1.67;;;;;;;26.44;30.10;97362.25;5034669;28;20055;-59
2022/08/23 11:48:19;;;;;;;3.15;1.60;;;;;;;26.57;30.23;97362.16;5035637;28;20045;-59
2022/08/23 11:51:10;;;;;;;3.45;1.45;;;;;;;26.70;29.81;97360.91;5039988;28;20052;-57
2022/08/23 11:54:06;;;;;;;5.40;1.90;;;;;;;26.81;29.21;97360.34;5043316;28;20127;-56
2022/08/23 11:57:03;;;;;;;3.72;1.50;;;;;;;26.93;29.61;97362.22;5043635;28;20167;-57
2022/08/23 11:59:33;;;;;;;2.47;1.20;;;;;;;27.02;28.54;97351.75;5039021;28;20051;-58
2022/08/23 12:02:30;;;;;;;5.47;1.80;;;;;;;27.08;28.42;97357.84;5046582;28;20037;-59
2022/08/23 12:05:01;;;;;;;4.10;1.58;;;;;;;27.25;28.13;97362.16;5043025;28;20079;-59
2022/08/23 12:07:46;;;;;;;6.93;1.67;;;;;;;27.30;28.01;97361.88;5047645;28;20041;-59
2022/08/23 12:10:23;;;;;;;4.97;1.40;;;;;;;27.42;27.93;97355.38;5043306;28;20115;-59
2022/08/23 12:13:21;;;;;;;6.32;1.80;;;;;;;27.58;27.53;97351.72;5048888;28;20036;-58
2022/08/23 12:16:24;;;;;;;7.88;1.60;;;;;;;27.66;27.79;97345.16;5051926;28;20509;-57
2022/08/23 12:18:59;;;;;;;5.03;1.70;;;;;;;27.81;27.31;97354.59;5046387;28;20086;-57
2022/08/23 12:21:33;;;;;;;2.28;1.20;;;;;;;27.89;26.88;97349.97;5044536;28;20044;-59